createdAt,value
2022-09-30T00:01:57.307Z,97556.03
2022-09-30T00:04:43.089Z,97385.38
2022-09-30T00:07:28.393Z,97565.31
2022-09-30T00:10:15.002Z,97457.94
2022-09-30T00:13:00.261Z,97538.53
2022-09-30T00:15:47.285Z,97553.28
2022-09-30T00:18:33.771Z,97464.38
2022-09-30T00:21:19.213Z,97561.19
2022-09-30T00:24:05.948Z,97586.03
2022-09-30T00:26:53.275Z,97562.75
2022-09-30T00:29:38.852Z,97565.88
2022-09-30T00:32:24.196Z,97419.34
2022-09-30T00:35:09.597Z,97528.81
2022-09-30T00:37:55.224Z,97570.63
2022-09-30T00:40:41.066Z,97425.75
2022-09-30T00:43:53.444Z,97535.81
2022-09-30T00:46:44.641Z,97584.38
2022-09-30T00:49:30.464Z,97598.19
2022-09-30T00:52:15.976Z,97570.13
2022-09-30T00:55:05.326Z,97548.44
2022-09-30T00:57:51.060Z,97576.22
2022-09-30T01:00:37.126Z,97533.44
2022-09-30T01:03:23.451Z,97543.38
2022-09-30T01:06:10.119Z,97423.13
2022-09-30T01:08:55.518Z,97580.69
2022-09-30T01:11:41.422Z,97555.44
2022-09-30T01:14:28.448Z,97597.94
2022-09-30T01:18:02.792Z,97585.50
2022-09-30T01:21:07.755Z,97529.84
2022-09-30T01:23:56.715Z,97590.22
2022-09-30T01:27:05.472Z,97593.59
2022-09-30T01:30:05.726Z,97421.19
2022-09-30T01:33:01.007Z,97549.19
2022-09-30T01:36:10.444Z,97630.16
2022-09-30T01:39:14.786Z,97569.00
2022-09-30T01:42:18.323Z,97432.41
2022-09-30T01:45:29.900Z,97589.38
2022-09-30T01:48:34.099Z,97590.25
2022-09-30T01:51:32.511Z,97423.84
2022-09-30T01:54:33.017Z,97599.41
2022-09-30T01:57:48.778Z,97598.19
2022-09-30T02:00:38.617Z,97595.28
2022-09-30T02:03:42.312Z,97430.81
2022-09-30T02:06:38.049Z,97635.69
2022-09-30T02:09:34.070Z,97613.69
2022-09-30T02:12:23.881Z,97455.22
2022-09-30T02:15:14.989Z,97603.16
2022-09-30T02:18:20.286Z,97564.75
2022-09-30T02:21:08.425Z,97606.91
2022-09-30T02:24:00.515Z,97615.88
2022-09-30T02:26:49.136Z,97422.97
2022-09-30T02:29:39.568Z,97628.69
2022-09-30T02:32:31.084Z,97449.91
2022-09-30T02:35:35.905Z,97640.31
2022-09-30T02:38:31.401Z,97643.44
2022-09-30T02:41:23.374Z,97640.75
2022-09-30T02:44:09.626Z,97610.91
2022-09-30T02:47:34.246Z,97642.91
2022-09-30T02:50:33.466Z,97476.25
2022-09-30T02:53:33.471Z,97659.88
2022-09-30T02:56:31.378Z,97617.56
2022-09-30T02:59:17.149Z,97646.28
2022-09-30T03:02:03.259Z,97645.19
2022-09-30T03:04:51.284Z,97499.03
2022-09-30T03:07:37.790Z,97638.97
2022-09-30T03:10:24.385Z,97478.41
2022-09-30T03:13:21.735Z,97657.38
2022-09-30T03:16:22.133Z,97658.22
2022-09-30T03:19:29.149Z,97690.44
2022-09-30T03:22:33.171Z,97668.50
2022-09-30T03:25:33.438Z,97639.50
2022-09-30T03:28:42.923Z,97673.56
2022-09-30T03:31:40.685Z,97544.50
2022-09-30T03:34:52.551Z,97669.91
2022-09-30T03:37:45.496Z,97673.81
2022-09-30T03:40:37.316Z,97672.34
2022-09-30T03:43:31.957Z,97712.81
2022-09-30T03:46:23.496Z,97687.00
2022-09-30T03:49:14.684Z,97525.50
2022-09-30T03:52:05.282Z,97683.16
2022-09-30T03:54:53.778Z,97708.00
2022-09-30T03:57:39.378Z,97611.78
2022-09-30T04:00:24.997Z,97695.06
2022-09-30T04:03:10.399Z,97698.09
2022-09-30T04:05:55.924Z,97602.34
2022-09-30T04:08:41.178Z,97662.78
2022-09-30T04:11:26.629Z,97704.84
2022-09-30T04:14:12.085Z,97700.22
2022-09-30T04:16:58.279Z,97692.59
2022-09-30T04:19:44.201Z,97714.00
2022-09-30T04:22:29.394Z,97696.22
2022-09-30T04:25:14.846Z,97536.50
2022-09-30T04:28:00.274Z,97696.22
2022-09-30T04:30:45.715Z,97724.63
2022-09-30T04:33:31.370Z,97586.63
2022-09-30T04:36:17.463Z,97559.56
2022-09-30T04:39:02.897Z,97633.53
2022-09-30T04:41:49.011Z,97729.94
2022-09-30T04:44:35.391Z,97712.03
2022-09-30T04:47:20.708Z,97689.41
2022-09-30T04:50:06.400Z,97671.19
2022-09-30T04:52:52.493Z,97725.78
2022-09-30T04:55:38.723Z,97734.25
2022-09-30T04:58:24.873Z,97670.72
2022-09-30T05:01:19.509Z,97742.50
2022-09-30T05:04:05.286Z,97581.56
2022-09-30T05:06:50.766Z,97689.97
2022-09-30T05:09:36.524Z,97575.28
2022-09-30T05:12:22.091Z,97684.19
2022-09-30T05:15:08.704Z,97716.91
2022-09-30T05:17:54.539Z,97589.06
2022-09-30T05:20:40.361Z,97780.84
2022-09-30T05:23:27.735Z,97591.13
2022-09-30T05:26:13.661Z,97608.03
2022-09-30T05:28:59.081Z,97646.38
2022-09-30T05:31:44.507Z,97798.03
2022-09-30T05:34:30.343Z,97621.25
2022-09-30T05:37:15.836Z,97687.97
2022-09-30T05:40:01.214Z,97585.34
2022-09-30T05:42:47.482Z,97694.41
2022-09-30T05:45:32.968Z,97737.53
2022-09-30T05:48:18.303Z,97606.34
2022-09-30T05:51:03.880Z,97664.50
2022-09-30T05:53:49.258Z,97786.19
2022-09-30T05:56:34.776Z,97756.63
2022-09-30T05:59:20.137Z,97803.91
2022-09-30T06:02:05.964Z,97783.06
2022-09-30T06:04:51.410Z,97805.72
2022-09-30T06:07:37.986Z,97651.44
2022-09-30T06:10:24.226Z,97635.47
2022-09-30T06:13:10.263Z,97629.19
2022-09-30T06:16:00.288Z,97623.13
2022-09-30T06:18:45.984Z,97682.34
2022-09-30T06:21:32.133Z,97768.94
2022-09-30T06:24:17.760Z,97628.22
2022-09-30T06:27:03.122Z,97791.34
2022-09-30T06:29:48.740Z,97622.72
2022-09-30T06:32:34.261Z,97834.34
2022-09-30T06:35:20.599Z,97777.81
2022-09-30T06:38:06.156Z,97807.78
2022-09-30T06:40:51.661Z,97762.22
2022-09-30T06:43:49.095Z,97668.56
2022-09-30T06:46:53.014Z,97652.59
2022-09-30T06:49:48.126Z,97806.13
2022-09-30T06:52:35.131Z,97688.72
2022-09-30T06:55:22.649Z,97834.22
2022-09-30T06:58:13.809Z,97670.75
2022-09-30T07:01:06.978Z,97636.69
2022-09-30T07:03:57.858Z,97745.59
2022-09-30T07:06:43.997Z,97800.06
2022-09-30T07:09:29.823Z,97659.41
2022-09-30T07:12:15.191Z,97827.56
2022-09-30T07:15:00.618Z,97799.22
2022-09-30T07:17:51.851Z,97775.31
2022-09-30T07:20:37.467Z,97784.06
2022-09-30T07:23:27.142Z,97665.81
2022-09-30T07:26:22.678Z,97786.34
2022-09-30T07:29:08.337Z,97665.47
2022-09-30T07:31:54.369Z,97837.53
2022-09-30T07:34:44.317Z,97714.91
2022-09-30T07:37:36.032Z,97869.66
2022-09-30T07:40:21.875Z,97815.66
2022-09-30T07:43:07.713Z,97856.94
2022-09-30T07:45:55.792Z,97847.56
2022-09-30T07:48:44.872Z,97703.44
2022-09-30T07:51:36.775Z,97653.88
2022-09-30T07:54:25.302Z,97895.19
2022-09-30T07:57:11.739Z,97866.75
2022-09-30T07:59:57.847Z,97854.88
2022-09-30T08:02:43.159Z,97868.44
2022-09-30T08:05:28.637Z,97869.16
2022-09-30T08:08:16.032Z,97719.91
2022-09-30T08:11:02.331Z,97691.34
2022-09-30T08:13:52.616Z,97883.81
2022-09-30T08:16:37.948Z,97793.19
2022-09-30T08:19:24.786Z,97879.81
2022-09-30T08:22:10.814Z,97876.19
2022-09-30T08:24:56.044Z,97879.31
2022-09-30T08:27:41.505Z,97870.72
2022-09-30T08:30:27.092Z,97815.72
2022-09-30T08:33:12.491Z,97702.47
2022-09-30T08:36:12.441Z,97872.75
2022-09-30T08:38:58.638Z,97720.59
2022-09-30T08:42:19.185Z,97860.59
2022-09-30T08:44:52.268Z,97841.81
2022-09-30T08:47:48.719Z,97856.88
2022-09-30T08:50:37.794Z,97833.28
2022-09-30T08:53:11.662Z,97742.28
2022-09-30T08:55:45.010Z,97873.41
2022-09-30T08:58:21.830Z,97827.88
2022-09-30T09:00:53.047Z,97861.75
2022-09-30T09:03:20.834Z,97874.97
2022-09-30T09:06:01.050Z,97878.00
2022-09-30T09:08:52.357Z,97875.22
2022-09-30T09:11:43.339Z,97919.22
2022-09-30T09:14:40.929Z,97841.94
2022-09-30T09:17:31.859Z,97885.25
2022-09-30T09:20:15.509Z,97907.56
2022-09-30T09:22:45.593Z,97766.94
2022-09-30T09:25:19.390Z,97871.19
2022-09-30T09:28:16.105Z,97875.03
2022-09-30T09:30:54.731Z,97686.41
2022-09-30T09:33:27.780Z,97892.50
2022-09-30T09:36:19.218Z,97862.34
2022-09-30T09:39:27.678Z,97862.06
2022-09-30T09:42:07.699Z,97865.91
2022-09-30T09:44:45.003Z,97872.94
2022-09-30T09:47:17.386Z,97793.84
2022-09-30T09:49:58.624Z,97879.91
2022-09-30T09:52:43.341Z,97858.72
2022-09-30T09:55:12.082Z,97731.16
2022-09-30T09:57:40.282Z,97858.31
2022-09-30T10:00:27.695Z,97866.41
2022-09-30T10:03:23.470Z,97870.00
2022-09-30T10:06:03.642Z,97721.56
2022-09-30T10:08:33.975Z,97815.66
2022-09-30T10:11:18.380Z,97782.53
2022-09-30T10:13:45.772Z,97855.84
2022-09-30T10:16:25.041Z,97876.66
2022-09-30T10:18:52.244Z,97873.94
2022-09-30T10:21:25.123Z,97715.75
2022-09-30T10:23:52.603Z,97843.41
2022-09-30T10:26:22.091Z,97840.28
2022-09-30T10:29:02.140Z,97890.88
2022-09-30T10:31:38.783Z,97730.03
2022-09-30T10:34:25.051Z,97880.91
2022-09-30T10:36:53.553Z,97740.06
2022-09-30T10:39:27.379Z,97821.38
2022-09-30T10:42:08.607Z,97719.41
2022-09-30T10:44:49.443Z,97852.88
2022-09-30T10:47:19.710Z,97708.69
2022-09-30T10:50:00.903Z,97839.19
2022-09-30T10:52:31.110Z,97828.19
2022-09-30T10:54:59.236Z,97864.16
2022-09-30T10:57:31.809Z,97890.88
2022-09-30T11:00:00.198Z,97868.91
2022-09-30T11:02:56.983Z,97798.75
2022-09-30T11:05:24.928Z,97898.50
2022-09-30T11:08:02.328Z,97701.09
2022-09-30T11:10:51.285Z,97837.56
2022-09-30T11:13:29.938Z,97745.53
2022-09-30T11:16:15.065Z,97701.97
2022-09-30T11:18:56.314Z,97862.91
2022-09-30T11:21:29.452Z,97881.97
2022-09-30T11:24:05.703Z,97767.16
2022-09-30T11:27:02.152Z,97768.97
2022-09-30T11:30:01.318Z,97865.84
2022-09-30T11:32:59.400Z,97846.94
2022-09-30T11:35:48.733Z,97729.94
2022-09-30T11:38:33.248Z,97718.03
2022-09-30T11:41:17.598Z,97761.66
2022-09-30T11:44:05.594Z,97829.06
2022-09-30T11:46:55.600Z,97802.25
2022-09-30T11:49:55.588Z,97662.25
2022-09-30T11:53:00.334Z,97830.69
2022-09-30T11:55:57.613Z,97844.06
2022-09-30T11:58:41.124Z,97804.28
2022-09-30T12:01:30.530Z,97839.31
2022-09-30T12:04:08.391Z,97758.56
2022-09-30T12:06:44.212Z,97769.34
2022-09-30T12:09:22.389Z,97689.00
2022-09-30T12:11:52.151Z,97690.06
2022-09-30T12:14:42.839Z,97834.78
2022-09-30T12:17:32.118Z,97841.91
2022-09-30T12:20:07.273Z,97830.50
2022-09-30T12:22:42.353Z,97685.75
2022-09-30T12:25:21.605Z,97683.25
2022-09-30T12:28:24.023Z,97840.91
2022-09-30T12:31:00.170Z,97723.69
2022-09-30T12:34:04.467Z,97846.78
2022-09-30T12:36:43.538Z,97839.22
2022-09-30T12:39:41.763Z,97873.81
2022-09-30T12:43:05.897Z,97853.06
2022-09-30T12:46:14.747Z,97845.38
2022-09-30T12:48:44.363Z,97844.66
2022-09-30T12:51:31.215Z,97844.53
2022-09-30T12:54:13.838Z,97865.41
2022-09-30T12:56:46.181Z,97842.63
2022-09-30T12:59:14.445Z,97800.50
2022-09-30T13:01:42.516Z,97681.78
2022-09-30T13:04:16.887Z,97686.13
2022-09-30T13:06:46.460Z,97841.28
2022-09-30T13:09:16.101Z,97845.34
2022-09-30T13:11:55.178Z,97747.84
2022-09-30T13:14:26.342Z,97694.25
2022-09-30T13:17:06.617Z,97811.38
2022-09-30T13:19:41.564Z,97849.84
2022-09-30T13:22:20.675Z,97851.13
2022-09-30T13:24:57.663Z,97870.63
2022-09-30T13:27:43.319Z,97692.31
2022-09-30T13:30:13.308Z,97805.94
2022-09-30T13:32:43.648Z,97816.78
2022-09-30T13:35:35.585Z,97829.97
2022-09-30T13:38:14.652Z,97839.81
2022-09-30T13:41:03.296Z,97835.56
2022-09-30T13:43:30.471Z,97857.97
2022-09-30T13:46:04.925Z,97817.50
2022-09-30T13:48:41.381Z,97720.06
2022-09-30T13:51:14.947Z,97859.88
2022-09-30T13:53:51.372Z,97845.44
2022-09-30T13:56:23.092Z,97872.81
2022-09-30T13:58:56.722Z,97863.78
2022-09-30T14:01:42.333Z,97858.09
2022-09-30T14:04:31.133Z,97874.78
2022-09-30T14:07:04.298Z,97713.16
2022-09-30T14:09:58.767Z,97857.81
2022-09-30T14:12:52.154Z,97836.84
2022-09-30T14:15:49.140Z,97825.66
2022-09-30T14:18:22.953Z,97820.03
2022-09-30T14:21:28.218Z,97822.03
2022-09-30T14:24:09.485Z,97816.97
2022-09-30T14:26:36.387Z,97817.25
2022-09-30T14:29:43.479Z,97828.00
2022-09-30T14:32:20.789Z,97771.06
2022-09-30T14:34:49.220Z,97801.63
2022-09-30T14:37:31.228Z,97758.03
2022-09-30T14:39:59.950Z,97681.03
2022-09-30T14:42:33.345Z,97823.66
2022-09-30T14:45:06.025Z,97780.63
2022-09-30T14:47:44.911Z,97866.47
2022-09-30T14:50:17.769Z,97863.41
2022-09-30T14:52:47.073Z,97853.66
2022-09-30T14:55:42.780Z,97688.97
2022-09-30T14:58:22.283Z,97739.72
2022-09-30T15:01:00.473Z,97864.69
2022-09-30T15:03:29.165Z,97852.38
2022-09-30T15:05:58.267Z,97524.06
2022-09-30T15:08:25.600Z,97696.38
2022-09-30T15:10:55.416Z,97697.75
2022-09-30T15:13:26.321Z,97801.41
2022-09-30T15:15:54.065Z,97842.25
2022-09-30T15:18:28.189Z,97712.38
2022-09-30T15:20:59.450Z,97856.97
2022-09-30T15:23:31.294Z,97836.63
2022-09-30T15:25:58.864Z,97857.06
2022-09-30T15:28:26.461Z,97760.63
2022-09-30T15:30:58.323Z,97740.38
2022-09-30T15:33:32.500Z,97878.75
2022-09-30T15:36:05.981Z,97694.63
2022-09-30T15:38:37.493Z,97832.34
2022-09-30T15:41:08.961Z,97711.38
2022-09-30T15:43:40.924Z,97877.84
2022-09-30T15:46:28.863Z,97871.50
2022-09-30T15:49:29.109Z,97857.94
2022-09-30T15:52:20.727Z,97866.53
2022-09-30T15:54:48.461Z,97782.28
2022-09-30T15:57:51.538Z,97872.13
2022-09-30T16:00:40.241Z,97870.56
2022-09-30T16:03:08.040Z,97875.09
2022-09-30T16:05:35.592Z,97869.31
2022-09-30T16:08:09.828Z,97757.69
2022-09-30T16:10:37.730Z,97805.31
2022-09-30T16:13:07.030Z,97755.34
2022-09-30T16:15:41.543Z,97740.34
2022-09-30T16:18:19.986Z,97877.72
2022-09-30T16:21:05.520Z,97816.31
2022-09-30T16:23:38.484Z,97737.25
2022-09-30T16:26:16.586Z,97879.97
2022-09-30T16:28:43.856Z,97891.34
2022-09-30T16:31:15.497Z,97882.50
2022-09-30T16:33:43.538Z,97882.72
2022-09-30T16:36:11.949Z,97898.56
2022-09-30T16:38:39.252Z,97741.38
2022-09-30T16:41:06.704Z,97764.34
2022-09-30T16:43:34.572Z,97725.59
2022-09-30T16:46:02.967Z,97884.81
2022-09-30T16:48:30.877Z,97885.16
2022-09-30T16:51:12.045Z,97745.13
2022-09-30T16:53:39.332Z,97789.78
2022-09-30T16:56:19.815Z,97790.84
2022-09-30T16:58:47.710Z,97906.69
2022-09-30T17:01:20.019Z,97910.84
2022-09-30T17:03:48.050Z,97894.19
2022-09-30T17:06:18.092Z,97907.22
2022-09-30T17:08:45.530Z,97817.84
2022-09-30T17:11:13.265Z,97901.94
2022-09-30T17:13:42.746Z,97899.16
2022-09-30T17:16:10.198Z,97824.19
2022-09-30T17:18:37.600Z,97768.44
2022-09-30T17:21:05.338Z,97870.34
2022-09-30T17:23:32.561Z,97780.94
2022-09-30T17:25:59.750Z,97940.03
2022-09-30T17:28:26.810Z,97866.19
2022-09-30T17:30:54.624Z,97872.38
2022-09-30T17:33:22.683Z,97753.66
2022-09-30T17:36:00.912Z,97776.94
2022-09-30T17:38:29.027Z,97912.66
2022-09-30T17:41:15.040Z,97932.44
2022-09-30T17:43:42.314Z,97909.06
2022-09-30T17:46:09.525Z,97910.09
2022-09-30T17:48:39.627Z,97797.81
2022-09-30T17:51:08.332Z,97900.97
2022-09-30T17:53:36.972Z,97943.72
2022-09-30T17:56:14.351Z,97811.91
2022-09-30T17:58:42.511Z,97912.78
2022-09-30T18:01:10.556Z,97920.03
2022-09-30T18:03:37.897Z,97886.69
2022-09-30T18:06:07.010Z,97932.66
2022-09-30T18:08:36.117Z,97912.19
2022-09-30T18:11:04.496Z,97859.69
2022-09-30T18:13:32.370Z,97963.34
2022-09-30T18:16:03.589Z,97795.31
2022-09-30T18:18:33.773Z,97959.00
2022-09-30T18:21:03.567Z,97809.38
2022-09-30T18:23:30.908Z,97979.53
2022-09-30T18:25:58.860Z,97802.75
2022-09-30T18:28:26.877Z,97939.53
2022-09-30T18:30:54.230Z,97991.09
2022-09-30T18:33:25.398Z,97820.53
2022-09-30T18:35:52.644Z,97983.44
2022-09-30T18:38:20.343Z,97918.81
2022-09-30T18:40:52.084Z,97837.63
2022-09-30T18:43:19.478Z,97960.34
2022-09-30T18:45:54.030Z,97958.19
2022-09-30T18:48:22.458Z,97951.66
2022-09-30T18:50:51.822Z,97846.53
2022-09-30T18:53:22.116Z,97901.63
2022-09-30T18:55:51.878Z,97956.72
2022-09-30T18:58:23.641Z,97966.66
2022-09-30T19:00:50.888Z,98000.63
2022-09-30T19:03:19.184Z,97964.50
2022-09-30T19:05:46.349Z,97988.22
2022-09-30T19:08:15.836Z,98012.03
2022-09-30T19:10:43.077Z,97844.22
2022-09-30T19:13:10.204Z,97930.72
2022-09-30T19:15:38.931Z,97871.53
2022-09-30T19:18:10.005Z,97827.56
2022-09-30T19:20:38.386Z,97831.16
2022-09-30T19:23:09.072Z,97850.75
2022-09-30T19:25:38.892Z,97885.63
2022-09-30T19:28:06.838Z,97997.09
2022-09-30T19:30:34.064Z,97977.44
2022-09-30T19:33:01.227Z,97992.34
2022-09-30T19:35:38.203Z,97985.09
2022-09-30T19:38:08.595Z,97833.50
2022-09-30T19:40:37.625Z,97850.16
2022-09-30T19:43:05.325Z,97990.47
2022-09-30T19:45:33.599Z,97930.03
2022-09-30T19:48:01.855Z,97999.69
2022-09-30T19:50:33.126Z,97853.31
2022-09-30T19:53:01.815Z,97881.22
2022-09-30T19:55:29.288Z,97994.97
2022-09-30T19:57:56.939Z,98008.06
2022-09-30T20:00:24.357Z,97957.91
2022-09-30T20:02:53.325Z,97857.03
2022-09-30T20:05:21.195Z,97859.22
2022-09-30T20:07:51.331Z,97860.47
2022-09-30T20:10:18.923Z,98009.59
2022-09-30T20:12:46.178Z,97915.81
2022-09-30T20:15:31.524Z,97862.25
2022-09-30T20:17:58.942Z,97887.00
2022-09-30T20:20:35.371Z,97923.06
2022-09-30T20:23:03.836Z,97953.34
2022-09-30T20:25:31.503Z,97949.94
2022-09-30T20:27:58.973Z,98032.84
2022-09-30T20:30:29.992Z,97954.22
2022-09-30T20:32:57.009Z,97862.53
2022-09-30T20:35:24.993Z,97970.09
2022-09-30T20:37:53.486Z,98055.91
2022-09-30T20:40:20.918Z,97881.41
2022-09-30T20:42:48.006Z,97910.59
2022-09-30T20:45:15.523Z,98037.31
2022-09-30T20:47:47.151Z,97887.81
2022-09-30T20:50:14.237Z,97891.59
2022-09-30T20:52:41.214Z,97879.47
2022-09-30T20:55:09.563Z,98045.38
2022-09-30T20:57:36.453Z,97901.41
2022-09-30T21:00:04.649Z,97983.59
2022-09-30T21:02:31.442Z,97908.66
2022-09-30T21:04:58.460Z,98028.94
2022-09-30T21:07:26.614Z,98080.88
2022-09-30T21:09:53.555Z,97925.16
2022-09-30T21:12:20.520Z,97910.38
2022-09-30T21:14:47.480Z,97994.19
2022-09-30T21:17:14.257Z,98068.06
2022-09-30T21:19:41.278Z,98089.22
2022-09-30T21:22:08.116Z,98074.91
2022-09-30T21:24:35.020Z,98082.69
2022-09-30T21:27:05.841Z,98081.38
2022-09-30T21:29:33.001Z,98097.50
2022-09-30T21:32:00.526Z,97931.78
2022-09-30T21:34:28.040Z,98094.34
2022-09-30T21:36:54.970Z,97967.34
2022-09-30T21:39:21.803Z,98041.03
2022-09-30T21:41:48.829Z,97987.00
2022-09-30T21:44:16.184Z,98024.09
2022-09-30T21:46:48.189Z,98106.59
2022-09-30T21:49:21.027Z,97940.97
2022-09-30T21:51:47.856Z,97950.53
2022-09-30T21:54:15.461Z,98034.47
2022-09-30T21:56:43.701Z,97940.13
2022-09-30T21:59:11.958Z,97978.75
2022-09-30T22:01:39.537Z,97972.47
2022-09-30T22:04:06.608Z,97946.03
2022-09-30T22:06:33.539Z,98107.41
2022-09-30T22:09:01.543Z,97953.06
2022-09-30T22:11:30.434Z,97958.75
2022-09-30T22:13:59.378Z,97980.69
2022-09-30T22:16:29.797Z,98117.13
2022-09-30T22:19:00.192Z,97946.53
2022-09-30T22:21:31.804Z,97944.97
2022-09-30T22:24:01.518Z,98074.44
2022-09-30T22:26:29.181Z,98027.72
2022-09-30T22:28:59.451Z,98095.97
2022-09-30T22:31:29.564Z,97949.53
2022-09-30T22:34:31.269Z,98071.28
2022-09-30T22:37:16.782Z,98058.44
2022-09-30T22:39:43.606Z,97967.97
2022-09-30T22:42:10.449Z,98061.59
2022-09-30T22:44:37.627Z,98101.84
2022-09-30T22:47:08.123Z,98128.78
2022-09-30T22:49:35.234Z,98086.34
2022-09-30T22:52:02.926Z,97951.88
2022-09-30T22:54:30.653Z,98133.69
2022-09-30T22:56:59.365Z,98124.13
2022-09-30T22:59:27.077Z,98100.72
2022-09-30T23:01:54.560Z,98129.84
2022-09-30T23:04:22.197Z,98104.13
2022-09-30T23:06:50.834Z,97969.78
2022-09-30T23:09:18.389Z,98103.03
2022-09-30T23:11:46.167Z,98115.56
2022-09-30T23:14:13.394Z,98043.72
2022-09-30T23:16:40.791Z,97970.00
2022-09-30T23:19:07.834Z,98116.03
2022-09-30T23:21:35.334Z,98149.00
2022-09-30T23:24:02.572Z,97983.06
2022-09-30T23:26:31.181Z,98146.84
2022-09-30T23:28:59.892Z,97988.66
2022-09-30T23:31:27.334Z,97990.91
2022-09-30T23:33:57.185Z,98138.78
2022-09-30T23:36:29.739Z,98002.19
2022-09-30T23:39:12.691Z,98131.47
2022-09-30T23:41:40.094Z,98009.44
2022-09-30T23:44:09.635Z,97960.16
2022-09-30T23:46:36.587Z,98123.72
2022-09-30T23:49:03.511Z,98062.19
2022-09-30T23:51:33.589Z,98080.28
2022-09-30T23:54:02.308Z,98123.72
2022-09-30T23:56:29.176Z,98002.41
2022-09-30T23:58:55.942Z,98095.09
